sensor_id;sensor_type;location;lat;lon;timestamp;P1;durP1;ratioP1;P2;durP2;ratioP2
41059;SDS011;26811;53.160;8.202;2023-12-28T00:01:54;10.40;;;5.13;;
41059;SDS011;26811;53.160;8.202;2023-12-28T00:06:55;8.20;;;5.32;;
41059;SDS011;26811;53.160;8.202;2023-12-28T00:11:55;7.93;;;4.40;;
41059;SDS011;26811;53.160;8.202;2023-12-28T00:16:56;8.00;;;5.30;;
41059;SDS011;26811;53.160;8.202;2023-12-28T00:21:56;10.40;;;5.47;;
41059;SDS011;26811;53.160;8.202;2023-12-28T00:26:57;7.78;;;4.60;;
41059;SDS011;26811;53.160;8.202;2023-12-28T00:31:57;7.45;;;5.00;;
41059;SDS011;26811;53.160;8.202;2023-12-28T00:36:58;7.15;;;4.78;;
41059;SDS011;26811;53.160;8.202;2023-12-28T00:41:59;9.27;;;4.60;;
41059;SDS011;26811;53.160;8.202;2023-12-28T00:46:59;9.68;;;5.20;;
41059;SDS011;26811;53.160;8.202;2023-12-28T00:52:00;6.45;;;4.47;;
41059;SDS011;26811;53.160;8.202;2023-12-28T00:57:00;10.23;;;4.45;;
41059;SDS011;26811;53.160;8.202;2023-12-28T01:02:01;7.85;;;4.35;;
41059;SDS011;26811;53.160;8.202;2023-12-28T01:07:01;10.15;;;4.50;;
41059;SDS011;26811;53.160;8.202;2023-12-28T01:12:04;6.35;;;4.25;;
41059;SDS011;26811;53.160;8.202;2023-12-28T01:17:06;7.90;;;4.88;;
41059;SDS011;26811;53.160;8.202;2023-12-28T01:22:06;5.70;;;4.32;;
41059;SDS011;26811;53.160;8.202;2023-12-28T01:27:07;6.57;;;4.75;;
41059;SDS011;26811;53.160;8.202;2023-12-28T01:32:08;8.95;;;4.78;;
41059;SDS011;26811;53.160;8.202;2023-12-28T01:37:09;7.05;;;4.28;;
41059;SDS011;26811;53.160;8.202;2023-12-28T01:42:09;6.72;;;4.50;;
41059;SDS011;26811;53.160;8.202;2023-12-28T01:47:10;7.70;;;5.03;;
41059;SDS011;26811;53.160;8.202;2023-12-28T01:52:10;8.88;;;5.18;;
41059;SDS011;26811;53.160;8.202;2023-12-28T01:57:11;11.48;;;5.05;;
41059;SDS011;26811;53.160;8.202;2023-12-28T02:02:13;11.27;;;5.13;;
41059;SDS011;26811;53.160;8.202;2023-12-28T02:07:14;10.10;;;5.35;;
41059;SDS011;26811;53.160;8.202;2023-12-28T02:12:15;10.63;;;4.97;;
41059;SDS011;26811;53.160;8.202;2023-12-28T02:17:19;8.10;;;4.90;;
41059;SDS011;26811;53.160;8.202;2023-12-28T02:22:28;9.52;;;5.50;;
41059;SDS011;26811;53.160;8.202;2023-12-28T02:27:29;6.85;;;4.90;;
41059;SDS011;26811;53.160;8.202;2023-12-28T02:32:49;11.35;;;5.05;;
41059;SDS011;26811;53.160;8.202;2023-12-28T02:38:10;12.32;;;6.13;;
41059;SDS011;26811;53.160;8.202;2023-12-28T02:43:13;9.82;;;4.63;;
41059;SDS011;26811;53.160;8.202;2023-12-28T02:48:14;7.68;;;4.47;;
41059;SDS011;26811;53.160;8.202;2023-12-28T02:53:14;11.07;;;5.20;;
41059;SDS011;26811;53.160;8.202;2023-12-28T02:58:15;11.73;;;5.05;;
41059;SDS011;26811;53.160;8.202;2023-12-28T03:03:15;6.90;;;4.80;;
41059;SDS011;26811;53.160;8.202;2023-12-28T03:08:16;8.43;;;4.70;;
41059;SDS011;26811;53.160;8.202;2023-12-28T03:13:16;17.17;;;5.30;;
41059;SDS011;26811;53.160;8.202;2023-12-28T03:18:17;9.32;;;5.50;;
41059;SDS011;26811;53.160;8.202;2023-12-28T03:23:17;9.15;;;5.55;;
41059;SDS011;26811;53.160;8.202;2023-12-28T03:28:18;8.85;;;4.97;;
41059;SDS011;26811;53.160;8.202;2023-12-28T03:33:18;10.77;;;5.22;;
41059;SDS011;26811;53.160;8.202;2023-12-28T03:38:19;11.05;;;5.90;;
41059;SDS011;26811;53.160;8.202;2023-12-28T03:43:19;13.10;;;5.47;;
41059;SDS011;26811;53.160;8.202;2023-12-28T03:48:20;8.38;;;5.47;;
41059;SDS011;26811;53.160;8.202;2023-12-28T03:53:20;10.00;;;5.30;;
41059;SDS011;26811;53.160;8.202;2023-12-28T03:58:21;12.70;;;5.20;;
41059;SDS011;26811;53.160;8.202;2023-12-28T04:03:21;11.93;;;5.07;;
41059;SDS011;26811;53.160;8.202;2023-12-28T04:08:22;10.50;;;5.57;;
41059;SDS011;26811;53.160;8.202;2023-12-28T04:13:23;7.80;;;4.80;;
41059;SDS011;26811;53.160;8.202;2023-12-28T04:18:24;12.38;;;5.65;;
41059;SDS011;26811;53.160;8.202;2023-12-28T04:23:25;9.55;;;5.25;;
41059;SDS011;26811;53.160;8.202;2023-12-28T04:28:25;10.90;;;4.63;;
41059;SDS011;26811;53.160;8.202;2023-12-28T04:33:26;11.73;;;5.22;;
41059;SDS011;26811;53.160;8.202;2023-12-28T04:38:26;11.25;;;5.05;;
41059;SDS011;26811;53.160;8.202;2023-12-28T04:43:27;7.97;;;4.97;;
41059;SDS011;26811;53.160;8.202;2023-12-28T04:48:27;11.02;;;5.07;;
41059;SDS011;26811;53.160;8.202;2023-12-28T04:53:28;14.63;;;5.13;;
41059;SDS011;26811;53.160;8.202;2023-12-28T04:58:28;10.90;;;4.63;;
41059;SDS011;26811;53.160;8.202;2023-12-28T05:03:29;16.25;;;5.28;;
41059;SDS011;26811;53.160;8.202;2023-12-28T05:08:29;11.27;;;5.35;;
41059;SDS011;26811;53.160;8.202;2023-12-28T05:13:30;12.00;;;4.90;;
41059;SDS011;26811;53.160;8.202;2023-12-28T05:18:30;13.57;;;4.53;;
41059;SDS011;26811;53.160;8.202;2023-12-28T05:23:31;22.02;;;5.28;;
41059;SDS011;26811;53.160;8.202;2023-12-28T05:28:32;14.98;;;6.57;;
41059;SDS011;26811;53.160;8.202;2023-12-28T05:33:32;10.15;;;3.92;;
41059;SDS011;26811;53.160;8.202;2023-12-28T05:38:33;11.57;;;4.43;;
41059;SDS011;26811;53.160;8.202;2023-12-28T05:43:33;17.90;;;4.15;;
41059;SDS011;26811;53.160;8.202;2023-12-28T05:48:34;13.70;;;4.38;;
41059;SDS011;26811;53.160;8.202;2023-12-28T05:53:34;10.68;;;4.28;;
41059;SDS011;26811;53.160;8.202;2023-12-28T05:58:35;11.30;;;4.47;;
41059;SDS011;26811;53.160;8.202;2023-12-28T06:03:36;10.60;;;3.50;;
41059;SDS011;26811;53.160;8.202;2023-12-28T06:08:37;10.43;;;4.47;;
41059;SDS011;26811;53.160;8.202;2023-12-28T06:13:37;15.50;;;3.70;;
41059;SDS011;26811;53.160;8.202;2023-12-28T06:18:38;15.98;;;4.07;;
41059;SDS011;26811;53.160;8.202;2023-12-28T06:23:38;12.70;;;4.22;;
41059;SDS011;26811;53.160;8.202;2023-12-28T06:28:39;10.38;;;3.83;;
41059;SDS011;26811;53.160;8.202;2023-12-28T06:33:39;15.48;;;4.57;;
41059;SDS011;26811;53.160;8.202;2023-12-28T06:38:40;16.08;;;4.57;;
41059;SDS011;26811;53.160;8.202;2023-12-28T06:43:40;16.27;;;3.85;;
41059;SDS011;26811;53.160;8.202;2023-12-28T06:48:41;17.52;;;4.25;;
41059;SDS011;26811;53.160;8.202;2023-12-28T06:53:43;8.23;;;3.80;;
41059;SDS011;26811;53.160;8.202;2023-12-28T06:58:44;17.40;;;4.38;;
41059;SDS011;26811;53.160;8.202;2023-12-28T07:03:45;12.68;;;3.90;;
41059;SDS011;26811;53.160;8.202;2023-12-28T07:08:45;15.80;;;4.18;;
41059;SDS011;26811;53.160;8.202;2023-12-28T07:13:46;14.05;;;3.90;;
41059;SDS011;26811;53.160;8.202;2023-12-28T07:18:46;14.30;;;4.38;;
41059;SDS011;26811;53.160;8.202;2023-12-28T07:23:47;13.85;;;3.85;;
41059;SDS011;26811;53.160;8.202;2023-12-28T07:28:49;11.80;;;3.70;;
41059;SDS011;26811;53.160;8.202;2023-12-28T07:33:49;17.13;;;3.90;;
41059;SDS011;26811;53.160;8.202;2023-12-28T07:38:50;19.95;;;3.67;;
41059;SDS011;26811;53.160;8.202;2023-12-28T07:43:50;15.02;;;3.95;;
41059;SDS011;26811;53.160;8.202;2023-12-28T07:48:51;14.68;;;3.67;;
41059;SDS011;26811;53.160;8.202;2023-12-28T07:53:51;27.40;;;5.10;;
41059;SDS011;26811;53.160;8.202;2023-12-28T07:58:52;17.63;;;3.72;;
41059;SDS011;26811;53.160;8.202;2023-12-28T08:03:53;12.02;;;3.25;;
41059;SDS011;26811;53.160;8.202;2023-12-28T08:08:53;16.40;;;3.85;;
41059;SDS011;26811;53.160;8.202;2023-12-28T08:13:54;18.30;;;4.13;;
41059;SDS011;26811;53.160;8.202;2023-12-28T08:18:54;20.02;;;4.40;;
41059;SDS011;26811;53.160;8.202;2023-12-28T08:23:55;23.75;;;4.05;;
41059;SDS011;26811;53.160;8.202;2023-12-28T08:28:56;12.00;;;3.15;;
41059;SDS011;26811;53.160;8.202;2023-12-28T08:33:57;12.48;;;3.17;;
41059;SDS011;26811;53.160;8.202;2023-12-28T08:38:58;21.33;;;3.97;;
41059;SDS011;26811;53.160;8.202;2023-12-28T08:43:59;17.00;;;3.17;;
41059;SDS011;26811;53.160;8.202;2023-12-28T08:49:00;21.02;;;3.08;;
41059;SDS011;26811;53.160;8.202;2023-12-28T08:54:01;19.00;;;3.80;;
41059;SDS011;26811;53.160;8.202;2023-12-28T08:59:02;23.23;;;3.75;;
41059;SDS011;26811;53.160;8.202;2023-12-28T09:04:03;13.80;;;2.63;;
41059;SDS011;26811;53.160;8.202;2023-12-28T09:09:04;19.65;;;3.25;;
41059;SDS011;26811;53.160;8.202;2023-12-28T09:14:05;21.48;;;3.08;;
41059;SDS011;26811;53.160;8.202;2023-12-28T09:19:06;22.00;;;3.50;;
41059;SDS011;26811;53.160;8.202;2023-12-28T09:24:06;16.85;;;3.45;;
41059;SDS011;26811;53.160;8.202;2023-12-28T09:29:07;26.88;;;4.20;;
41059;SDS011;26811;53.160;8.202;2023-12-28T09:34:07;23.90;;;3.72;;
41059;SDS011;26811;53.160;8.202;2023-12-28T09:39:08;24.70;;;3.95;;
41059;SDS011;26811;53.160;8.202;2023-12-28T09:44:12;16.38;;;3.30;;
41059;SDS011;26811;53.160;8.202;2023-12-28T09:49:14;24.27;;;3.70;;
41059;SDS011;26811;53.160;8.202;2023-12-28T09:54:17;18.73;;;3.50;;
41059;SDS011;26811;53.160;8.202;2023-12-28T09:59:18;17.23;;;3.67;;
41059;SDS011;26811;53.160;8.202;2023-12-28T10:04:20;16.15;;;2.97;;
41059;SDS011;26811;53.160;8.202;2023-12-28T10:09:21;25.60;;;3.90;;
41059;SDS011;26811;53.160;8.202;2023-12-28T10:14:22;28.05;;;3.30;;
41059;SDS011;26811;53.160;8.202;2023-12-28T10:19:23;19.08;;;3.65;;
41059;SDS011;26811;53.160;8.202;2023-12-28T10:24:24;20.10;;;3.72;;
41059;SDS011;26811;53.160;8.202;2023-12-28T10:29:25;21.05;;;4.57;;
41059;SDS011;26811;53.160;8.202;2023-12-28T10:34:26;22.60;;;3.55;;
41059;SDS011;26811;53.160;8.202;2023-12-28T10:39:26;27.90;;;3.92;;
41059;SDS011;26811;53.160;8.202;2023-12-28T10:44:33;19.88;;;3.58;;
41059;SDS011;26811;53.160;8.202;2023-12-28T10:49:37;34.65;;;3.90;;
41059;SDS011;26811;53.160;8.202;2023-12-28T10:54:52;23.73;;;3.63;;
41059;SDS011;26811;53.160;8.202;2023-12-28T11:00:06;20.45;;;4.60;;
41059;SDS011;26811;53.160;8.202;2023-12-28T11:05:11;25.83;;;4.03;;
41059;SDS011;26811;53.160;8.202;2023-12-28T11:10:13;24.27;;;3.60;;
41059;SDS011;26811;53.160;8.202;2023-12-28T11:15:14;26.52;;;3.60;;
41059;SDS011;26811;53.160;8.202;2023-12-28T11:20:18;27.75;;;3.50;;
41059;SDS011;26811;53.160;8.202;2023-12-28T11:25:30;26.73;;;3.67;;
41059;SDS011;26811;53.160;8.202;2023-12-28T11:30:49;21.60;;;3.70;;
41059;SDS011;26811;53.160;8.202;2023-12-28T11:36:12;21.42;;;3.67;;
41059;SDS011;26811;53.160;8.202;2023-12-28T11:41:40;21.00;;;3.85;;
41059;SDS011;26811;53.160;8.202;2023-12-28T11:46:45;21.83;;;3.83;;
41059;SDS011;26811;53.160;8.202;2023-12-28T11:51:53;25.02;;;3.53;;
41059;SDS011;26811;53.160;8.202;2023-12-28T11:57:05;28.48;;;3.80;;
41059;SDS011;26811;53.160;8.202;2023-12-28T12:02:06;28.73;;;3.70;;
41059;SDS011;26811;53.160;8.202;2023-12-28T12:07:11;25.15;;;3.50;;
41059;SDS011;26811;53.160;8.202;2023-12-28T12:12:17;22.63;;;4.13;;
41059;SDS011;26811;53.160;8.202;2023-12-28T12:17:18;18.85;;;3.47;;
41059;SDS011;26811;53.160;8.202;2023-12-28T12:22:19;21.08;;;4.00;;
41059;SDS011;26811;53.160;8.202;2023-12-28T12:27:22;21.67;;;3.85;;
41059;SDS011;26811;53.160;8.202;2023-12-28T12:32:28;24.05;;;3.95;;
41059;SDS011;26811;53.160;8.202;2023-12-28T12:37:37;30.85;;;4.20;;
41059;SDS011;26811;53.160;8.202;2023-12-28T12:43:19;26.48;;;4.50;;
41059;SDS011;26811;53.160;8.202;2023-12-28T12:49:15;24.10;;;3.80;;
41059;SDS011;26811;53.160;8.202;2023-12-28T12:54:26;24.58;;;3.30;;
41059;SDS011;26811;53.160;8.202;2023-12-28T13:00:16;24.35;;;3.50;;
41059;SDS011;26811;53.160;8.202;2023-12-28T13:05:36;29.08;;;4.72;;
41059;SDS011;26811;53.160;8.202;2023-12-28T13:11:05;24.27;;;3.75;;
41059;SDS011;26811;53.160;8.202;2023-12-28T13:16:15;28.35;;;3.83;;
41059;SDS011;26811;53.160;8.202;2023-12-28T13:21:43;34.88;;;4.43;;
41059;SDS011;26811;53.160;8.202;2023-12-28T13:26:53;30.98;;;3.97;;
41059;SDS011;26811;53.160;8.202;2023-12-28T13:32:23;22.60;;;3.58;;
41059;SDS011;26811;53.160;8.202;2023-12-28T13:37:30;24.70;;;3.35;;
41059;SDS011;26811;53.160;8.202;2023-12-28T13:43:05;27.85;;;3.80;;
41059;SDS011;26811;53.160;8.202;2023-12-28T13:54:12;25.83;;;3.35;;
41059;SDS011;26811;53.160;8.202;2023-12-28T14:04:28;30.48;;;3.95;;
41059;SDS011;26811;53.160;8.202;2023-12-28T14:09:47;30.80;;;3.88;;
41059;SDS011;26811;53.160;8.202;2023-12-28T14:14:59;23.88;;;4.05;;
41059;SDS011;26811;53.160;8.202;2023-12-28T14:20:23;29.77;;;3.85;;
41059;SDS011;26811;53.160;8.202;2023-12-28T14:25:32;25.63;;;3.75;;
41059;SDS011;26811;53.160;8.202;2023-12-28T14:30:37;29.75;;;4.00;;
41059;SDS011;26811;53.160;8.202;2023-12-28T14:35:47;22.23;;;4.00;;
41059;SDS011;26811;53.160;8.202;2023-12-28T14:40:56;33.88;;;4.40;;
41059;SDS011;26811;53.160;8.202;2023-12-28T14:46:18;30.48;;;4.03;;
41059;SDS011;26811;53.160;8.202;2023-12-28T14:51:28;26.60;;;3.63;;
41059;SDS011;26811;53.160;8.202;2023-12-28T14:56:31;26.25;;;4.10;;
41059;SDS011;26811;53.160;8.202;2023-12-28T15:01:38;37.58;;;4.43;;
41059;SDS011;26811;53.160;8.202;2023-12-28T15:06:46;32.55;;;4.30;;
41059;SDS011;26811;53.160;8.202;2023-12-28T15:11:56;36.20;;;4.10;;
41059;SDS011;26811;53.160;8.202;2023-12-28T15:17:09;27.10;;;4.75;;
41059;SDS011;26811;53.160;8.202;2023-12-28T15:22:13;29.83;;;4.38;;
41059;SDS011;26811;53.160;8.202;2023-12-28T15:33:12;26.88;;;4.25;;
41059;SDS011;26811;53.160;8.202;2023-12-28T15:44:07;33.67;;;4.28;;
41059;SDS011;26811;53.160;8.202;2023-12-28T15:49:30;28.35;;;4.45;;
41059;SDS011;26811;53.160;8.202;2023-12-28T15:54:45;23.30;;;3.17;;
41059;SDS011;26811;53.160;8.202;2023-12-28T16:05:31;33.63;;;4.93;;
41059;SDS011;26811;53.160;8.202;2023-12-28T16:10:47;32.70;;;3.83;;
41059;SDS011;26811;53.160;8.202;2023-12-28T16:15:56;29.42;;;3.88;;
41059;SDS011;26811;53.160;8.202;2023-12-28T16:21:07;31.88;;;4.07;;
41059;SDS011;26811;53.160;8.202;2023-12-28T16:26:11;26.77;;;4.00;;
41059;SDS011;26811;53.160;8.202;2023-12-28T16:31:14;22.98;;;4.55;;
41059;SDS011;26811;53.160;8.202;2023-12-28T16:36:21;33.55;;;3.67;;
41059;SDS011;26811;53.160;8.202;2023-12-28T16:41:37;29.02;;;4.57;;
41059;SDS011;26811;53.160;8.202;2023-12-28T16:46:47;30.33;;;4.40;;
41059;SDS011;26811;53.160;8.202;2023-12-28T16:51:51;27.67;;;4.00;;
41059;SDS011;26811;53.160;8.202;2023-12-28T16:56:52;23.65;;;3.85;;
41059;SDS011;26811;53.160;8.202;2023-12-28T17:01:53;25.85;;;4.28;;
41059;SDS011;26811;53.160;8.202;2023-12-28T17:07:00;25.98;;;5.13;;
41059;SDS011;26811;53.160;8.202;2023-12-28T17:12:13;25.63;;;3.90;;
41059;SDS011;26811;53.160;8.202;2023-12-28T17:17:21;33.80;;;6.03;;
41059;SDS011;26811;53.160;8.202;2023-12-28T17:22:23;26.40;;;4.75;;
41059;SDS011;26811;53.160;8.202;2023-12-28T17:27:29;23.73;;;4.90;;
41059;SDS011;26811;53.160;8.202;2023-12-28T17:32:34;26.48;;;4.78;;
41059;SDS011;26811;53.160;8.202;2023-12-28T17:37:38;30.25;;;4.13;;
41059;SDS011;26811;53.160;8.202;2023-12-28T17:42:39;26.92;;;4.32;;
41059;SDS011;26811;53.160;8.202;2023-12-28T17:53:20;22.85;;;3.70;;
41059;SDS011;26811;53.160;8.202;2023-12-28T17:58:21;22.38;;;3.70;;
41059;SDS011;26811;53.160;8.202;2023-12-28T18:03:22;28.30;;;4.13;;
41059;SDS011;26811;53.160;8.202;2023-12-28T18:08:24;23.70;;;3.90;;
41059;SDS011;26811;53.160;8.202;2023-12-28T18:13:25;23.85;;;4.40;;
41059;SDS011;26811;53.160;8.202;2023-12-28T18:18:26;15.38;;;4.40;;
41059;SDS011;26811;53.160;8.202;2023-12-28T18:23:27;22.98;;;4.03;;
41059;SDS011;26811;53.160;8.202;2023-12-28T18:28:27;23.20;;;4.00;;
41059;SDS011;26811;53.160;8.202;2023-12-28T18:33:28;22.60;;;4.07;;
41059;SDS011;26811;53.160;8.202;2023-12-28T18:38:29;21.95;;;3.78;;
41059;SDS011;26811;53.160;8.202;2023-12-28T18:43:30;23.40;;;3.67;;
41059;SDS011;26811;53.160;8.202;2023-12-28T18:48:30;15.55;;;3.50;;
41059;SDS011;26811;53.160;8.202;2023-12-28T18:53:31;28.48;;;4.70;;
41059;SDS011;26811;53.160;8.202;2023-12-28T18:58:32;24.52;;;4.10;;
41059;SDS011;26811;53.160;8.202;2023-12-28T19:03:34;25.67;;;3.80;;
41059;SDS011;26811;53.160;8.202;2023-12-28T19:08:36;24.33;;;4.10;;
41059;SDS011;26811;53.160;8.202;2023-12-28T19:13:36;19.60;;;3.35;;
41059;SDS011;26811;53.160;8.202;2023-12-28T19:18:38;16.15;;;3.70;;
41059;SDS011;26811;53.160;8.202;2023-12-28T19:23:39;37.58;;;5.18;;
41059;SDS011;26811;53.160;8.202;2023-12-28T19:28:40;23.73;;;4.05;;
41059;SDS011;26811;53.160;8.202;2023-12-28T19:33:44;21.83;;;4.00;;
41059;SDS011;26811;53.160;8.202;2023-12-28T19:38:45;23.77;;;4.60;;
41059;SDS011;26811;53.160;8.202;2023-12-28T19:43:46;19.77;;;4.45;;
41059;SDS011;26811;53.160;8.202;2023-12-28T19:48:46;28.65;;;4.45;;
41059;SDS011;26811;53.160;8.202;2023-12-28T19:53:47;20.90;;;3.60;;
41059;SDS011;26811;53.160;8.202;2023-12-28T19:58:48;22.15;;;3.35;;
41059;SDS011;26811;53.160;8.202;2023-12-28T20:03:50;21.88;;;3.78;;
41059;SDS011;26811;53.160;8.202;2023-12-28T20:08:51;16.05;;;3.55;;
41059;SDS011;26811;53.160;8.202;2023-12-28T20:13:53;25.50;;;4.15;;
41059;SDS011;26811;53.160;8.202;2023-12-28T20:18:53;20.83;;;3.78;;
41059;SDS011;26811;53.160;8.202;2023-12-28T20:23:55;16.90;;;3.75;;
41059;SDS011;26811;53.160;8.202;2023-12-28T20:28:55;24.60;;;3.92;;
41059;SDS011;26811;53.160;8.202;2023-12-28T20:33:59;22.27;;;3.90;;
41059;SDS011;26811;53.160;8.202;2023-12-28T20:38:59;13.15;;;3.25;;
41059;SDS011;26811;53.160;8.202;2023-12-28T20:44:00;22.05;;;3.50;;
41059;SDS011;26811;53.160;8.202;2023-12-28T20:49:01;18.90;;;3.05;;
41059;SDS011;26811;53.160;8.202;2023-12-28T20:54:02;16.77;;;3.00;;
41059;SDS011;26811;53.160;8.202;2023-12-28T20:59:02;22.45;;;3.55;;
41059;SDS011;26811;53.160;8.202;2023-12-28T21:04:03;18.85;;;3.92;;
41059;SDS011;26811;53.160;8.202;2023-12-28T21:09:04;25.70;;;4.03;;
41059;SDS011;26811;53.160;8.202;2023-12-28T21:14:05;28.33;;;3.50;;
41059;SDS011;26811;53.160;8.202;2023-12-28T21:19:07;22.25;;;3.40;;
41059;SDS011;26811;53.160;8.202;2023-12-28T21:24:08;22.58;;;3.40;;
41059;SDS011;26811;53.160;8.202;2023-12-28T21:29:09;17.10;;;2.88;;
41059;SDS011;26811;53.160;8.202;2023-12-28T21:34:09;27.48;;;3.55;;
41059;SDS011;26811;53.160;8.202;2023-12-28T21:39:10;22.10;;;3.13;;
41059;SDS011;26811;53.160;8.202;2023-12-28T21:44:12;27.75;;;3.80;;
41059;SDS011;26811;53.160;8.202;2023-12-28T21:49:13;19.67;;;3.25;;
41059;SDS011;26811;53.160;8.202;2023-12-28T21:54:14;17.25;;;4.05;;
41059;SDS011;26811;53.160;8.202;2023-12-28T21:59:15;25.35;;;3.35;;
41059;SDS011;26811;53.160;8.202;2023-12-28T22:04:18;20.05;;;3.70;;
41059;SDS011;26811;53.160;8.202;2023-12-28T22:09:20;13.98;;;3.33;;
41059;SDS011;26811;53.160;8.202;2023-12-28T22:14:22;16.95;;;3.22;;
41059;SDS011;26811;53.160;8.202;2023-12-28T22:19:23;17.23;;;3.33;;
41059;SDS011;26811;53.160;8.202;2023-12-28T22:24:23;18.35;;;3.38;;
41059;SDS011;26811;53.160;8.202;2023-12-28T22:29:24;17.30;;;3.50;;
41059;SDS011;26811;53.160;8.202;2023-12-28T22:34:25;20.17;;;3.28;;
41059;SDS011;26811;53.160;8.202;2023-12-28T22:39:26;15.43;;;3.28;;
41059;SDS011;26811;53.160;8.202;2023-12-28T22:44:27;17.35;;;3.63;;
41059;SDS011;26811;53.160;8.202;2023-12-28T22:49:27;17.10;;;3.83;;
41059;SDS011;26811;53.160;8.202;2023-12-28T22:54:28;17.98;;;3.90;;
41059;SDS011;26811;53.160;8.202;2023-12-28T22:59:29;14.85;;;3.83;;
41059;SDS011;26811;53.160;8.202;2023-12-28T23:04:30;19.83;;;3.83;;
41059;SDS011;26811;53.160;8.202;2023-12-28T23:09:30;15.90;;;3.80;;
41059;SDS011;26811;53.160;8.202;2023-12-28T23:14:31;15.57;;;3.88;;
41059;SDS011;26811;53.160;8.202;2023-12-28T23:19:31;20.45;;;4.85;;
41059;SDS011;26811;53.160;8.202;2023-12-28T23:24:32;15.55;;;3.60;;
41059;SDS011;26811;53.160;8.202;2023-12-28T23:29:32;11.52;;;3.92;;
41059;SDS011;26811;53.160;8.202;2023-12-28T23:34:33;31.88;;;4.88;;
41059;SDS011;26811;53.160;8.202;2023-12-28T23:39:34;19.05;;;3.55;;
41059;SDS011;26811;53.160;8.202;2023-12-28T23:44:36;20.73;;;4.07;;
41059;SDS011;26811;53.160;8.202;2023-12-28T23:54:39;20.15;;;3.60;;
41059;SDS011;26811;53.160;8.202;2023-12-28T23:59:40;11.40;;;3.25;;
